Hatfield, Minnesota
Current Conditions -  °F | °C
As of 1:54 AM on Thursday 23 Oct 2014 (Local Time) from KPQN Reporting Station
Haze Haze  
Wind Chill: 52°   Ceiling: 400
Heat Index: 52°   Visibility: 5mi
Dew Point: 52°   Wind: 9mph
Humidity: 100%   Direction: 270°W
Pressure: 30.01"   Gusts: NA
Location:  44.066°N, 96.3302°W
Report Text: KPQN 230654Z AUTO 27008KT 5SM BR OVC004 11/11 A3001 RMK AO2
Loading
Personal Weather Stations






























Interactive Weather Map New forecast layout! Learn more

10-Day Weather Forecast

Advertisements
Track Severe Weather on mobile